Terminal Aerodrome Forecast
Issued by NWS Grand Forks, ND

Home | Current Version | Previous Version | Graphics & Text | Print | Product List | Glossary On
Versions: 1 2 3 4 5 6 7 8 9 10 11 12 13 14 15 16 17
433
FTUS43 KFGF 211134
TAFFAR
TAF
KFAR 211134Z 2112/2212 13009KT 5SM BR FEW025 OVC040
     FM211300 13007KT 4SM BR OVC025
     FM211800 13005KT 2SM -DZ BR OVC008
     FM220000 11004KT P6SM -DZ OVC003=

USA.gov is the U.S. government's official web portal to all federal, state and local government web resources and services.